sensor_id;sensor_type;location;lat;lon;timestamp;P1;durP1;ratioP1;P2;durP2;ratioP2
39188;SDS011;24915;50.858;4.376;2022-09-27T00:01:15;10.20;;;2.38;;
39188;SDS011;24915;50.858;4.376;2022-09-27T00:03:41;4.10;;;1.63;;
39188;SDS011;24915;50.858;4.376;2022-09-27T00:06:08;9.88;;;2.03;;
39188;SDS011;24915;50.858;4.376;2022-09-27T00:08:37;10.27;;;1.80;;
39188;SDS011;24915;50.858;4.376;2022-09-27T00:11:04;6.82;;;1.48;;
39188;SDS011;24915;50.858;4.376;2022-09-27T00:13:31;6.28;;;1.80;;
39188;SDS011;24915;50.858;4.376;2022-09-27T00:16:01;5.68;;;2.03;;
39188;SDS011;24915;50.858;4.376;2022-09-27T00:21:03;6.28;;;1.55;;
39188;SDS011;24915;50.858;4.376;2022-09-27T00:23:36;6.57;;;1.50;;
39188;SDS011;24915;50.858;4.376;2022-09-27T00:26:02;7.18;;;1.38;;
39188;SDS011;24915;50.858;4.376;2022-09-27T00:28:29;6.28;;;1.67;;
39188;SDS011;24915;50.858;4.376;2022-09-27T00:30:55;3.42;;;1.35;;
39188;SDS011;24915;50.858;4.376;2022-09-27T00:33:21;4.68;;;1.33;;
39188;SDS011;24915;50.858;4.376;2022-09-27T00:35:46;7.45;;;1.65;;
39188;SDS011;24915;50.858;4.376;2022-09-27T00:38:13;4.05;;;1.08;;
39188;SDS011;24915;50.858;4.376;2022-09-27T00:40:39;7.18;;;2.00;;
39188;SDS011;24915;50.858;4.376;2022-09-27T00:43:23;5.57;;;1.30;;
39188;SDS011;24915;50.858;4.376;2022-09-27T00:45:50;6.88;;;1.33;;
39188;SDS011;24915;50.858;4.376;2022-09-27T00:48:20;9.07;;;2.05;;
39188;SDS011;24915;50.858;4.376;2022-09-27T00:50:52;4.85;;;1.88;;
39188;SDS011;24915;50.858;4.376;2022-09-27T00:53:30;7.60;;;1.80;;
39188;SDS011;24915;50.858;4.376;2022-09-27T00:56:04;7.18;;;1.58;;
39188;SDS011;24915;50.858;4.376;2022-09-27T00:58:42;8.60;;;1.70;;
39188;SDS011;24915;50.858;4.376;2022-09-27T01:01:12;6.35;;;1.50;;
39188;SDS011;24915;50.858;4.376;2022-09-27T01:03:56;9.27;;;2.03;;
39188;SDS011;24915;50.858;4.376;2022-09-27T01:06:32;5.38;;;1.27;;
39188;SDS011;24915;50.858;4.376;2022-09-27T01:08:58;3.78;;;1.65;;
39188;SDS011;24915;50.858;4.376;2022-09-27T01:11:31;3.45;;;1.40;;
39188;SDS011;24915;50.858;4.376;2022-09-27T01:31:39;6.95;;;1.33;;
39188;SDS011;24915;50.858;4.376;2022-09-27T01:53:47;3.13;;;1.20;;
39188;SDS011;24915;50.858;4.376;2022-09-27T01:56:24;3.45;;;1.45;;
39188;SDS011;24915;50.858;4.376;2022-09-27T01:58:59;4.85;;;1.80;;
39188;SDS011;24915;50.858;4.376;2022-09-27T02:01:29;6.95;;;1.63;;
39188;SDS011;24915;50.858;4.376;2022-09-27T02:03:58;6.85;;;1.80;;
39188;SDS011;24915;50.858;4.376;2022-09-27T02:06:30;7.45;;;1.77;;
39188;SDS011;24915;50.858;4.376;2022-09-27T02:11:38;4.22;;;1.50;;
39188;SDS011;24915;50.858;4.376;2022-09-27T02:14:26;2.95;;;1.25;;
39188;SDS011;24915;50.858;4.376;2022-09-27T02:20:11;7.22;;;1.60;;
39188;SDS011;24915;50.858;4.376;2022-09-27T02:22:53;7.68;;;1.58;;
39188;SDS011;24915;50.858;4.376;2022-09-27T02:25:46;4.35;;;1.63;;
39188;SDS011;24915;50.858;4.376;2022-09-27T02:28:22;7.35;;;1.55;;
39188;SDS011;24915;50.858;4.376;2022-09-27T02:30:50;5.70;;;1.20;;
39188;SDS011;24915;50.858;4.376;2022-09-27T02:33:17;3.88;;;1.27;;
39188;SDS011;24915;50.858;4.376;2022-09-27T02:35:45;6.57;;;1.35;;
39188;SDS011;24915;50.858;4.376;2022-09-27T02:38:11;5.40;;;1.50;;
39188;SDS011;24915;50.858;4.376;2022-09-27T02:40:41;2.85;;;1.23;;
39188;SDS011;24915;50.858;4.376;2022-09-27T02:43:08;8.85;;;1.33;;
39188;SDS011;24915;50.858;4.376;2022-09-27T03:05:20;5.70;;;1.90;;
39188;SDS011;24915;50.858;4.376;2022-09-27T03:07:52;4.45;;;1.60;;
39188;SDS011;24915;50.858;4.376;2022-09-27T03:10:19;3.20;;;1.60;;
39188;SDS011;24915;50.858;4.376;2022-09-27T03:12:47;5.88;;;1.42;;
39188;SDS011;24915;50.858;4.376;2022-09-27T03:15:14;3.10;;;1.23;;
39188;SDS011;24915;50.858;4.376;2022-09-27T03:17:40;4.40;;;2.00;;
39188;SDS011;24915;50.858;4.376;2022-09-27T03:20:06;8.20;;;1.73;;
39188;SDS011;24915;50.858;4.376;2022-09-27T03:22:33;4.50;;;1.63;;
39188;SDS011;24915;50.858;4.376;2022-09-27T03:24:58;11.02;;;1.63;;
39188;SDS011;24915;50.858;4.376;2022-09-27T03:27:24;4.13;;;1.33;;
39188;SDS011;24915;50.858;4.376;2022-09-27T03:29:50;4.05;;;1.85;;
39188;SDS011;24915;50.858;4.376;2022-09-27T03:32:16;2.95;;;1.42;;
39188;SDS011;24915;50.858;4.376;2022-09-27T03:34:41;8.52;;;2.08;;
39188;SDS011;24915;50.858;4.376;2022-09-27T03:37:07;6.65;;;1.95;;
39188;SDS011;24915;50.858;4.376;2022-09-27T03:39:33;5.47;;;1.75;;
39188;SDS011;24915;50.858;4.376;2022-09-27T03:41:58;6.45;;;2.03;;
39188;SDS011;24915;50.858;4.376;2022-09-27T03:44:24;4.97;;;1.70;;
39188;SDS011;24915;50.858;4.376;2022-09-27T03:46:50;8.93;;;1.88;;
39188;SDS011;24915;50.858;4.376;2022-09-27T03:49:15;7.43;;;1.60;;
39188;SDS011;24915;50.858;4.376;2022-09-27T03:51:41;3.50;;;1.25;;
39188;SDS011;24915;50.858;4.376;2022-09-27T03:54:07;6.13;;;1.40;;
39188;SDS011;24915;50.858;4.376;2022-09-27T03:56:33;3.38;;;1.00;;
39188;SDS011;24915;50.858;4.376;2022-09-27T03:58:59;5.93;;;1.60;;
39188;SDS011;24915;50.858;4.376;2022-09-27T04:01:25;7.13;;;1.30;;
39188;SDS011;24915;50.858;4.376;2022-09-27T04:03:51;4.97;;;1.67;;
39188;SDS011;24915;50.858;4.376;2022-09-27T04:06:17;7.25;;;2.08;;
39188;SDS011;24915;50.858;4.376;2022-09-27T04:08:43;4.57;;;1.70;;
39188;SDS011;24915;50.858;4.376;2022-09-27T04:11:10;5.22;;;1.60;;
39188;SDS011;24915;50.858;4.376;2022-09-27T04:13:35;5.70;;;1.52;;
39188;SDS011;24915;50.858;4.376;2022-09-27T04:16:01;3.22;;;1.63;;
39188;SDS011;24915;50.858;4.376;2022-09-27T04:18:27;8.30;;;2.78;;
39188;SDS011;24915;50.858;4.376;2022-09-27T04:20:53;4.60;;;1.90;;
39188;SDS011;24915;50.858;4.376;2022-09-27T04:23:19;5.38;;;1.52;;
39188;SDS011;24915;50.858;4.376;2022-09-27T04:25:45;5.85;;;2.05;;
39188;SDS011;24915;50.858;4.376;2022-09-27T04:28:11;4.70;;;1.52;;
39188;SDS011;24915;50.858;4.376;2022-09-27T04:30:37;5.03;;;1.83;;
39188;SDS011;24915;50.858;4.376;2022-09-27T04:33:03;3.00;;;2.05;;
39188;SDS011;24915;50.858;4.376;2022-09-27T04:35:29;4.95;;;1.98;;
39188;SDS011;24915;50.858;4.376;2022-09-27T04:40:39;4.45;;;2.70;;
39188;SDS011;24915;50.858;4.376;2022-09-27T04:43:05;7.00;;;4.28;;
39188;SDS011;24915;50.858;4.376;2022-09-27T04:45:31;5.20;;;3.35;;
39188;SDS011;24915;50.858;4.376;2022-09-27T04:47:58;5.40;;;3.65;;
39188;SDS011;24915;50.858;4.376;2022-09-27T04:50:23;4.25;;;3.58;;
39188;SDS011;24915;50.858;4.376;2022-09-27T04:52:52;6.82;;;4.57;;
39188;SDS011;24915;50.858;4.376;2022-09-27T04:55:21;8.30;;;4.47;;
39188;SDS011;24915;50.858;4.376;2022-09-27T04:57:47;4.32;;;3.92;;
39188;SDS011;24915;50.858;4.376;2022-09-27T05:00:13;8.43;;;4.60;;
39188;SDS011;24915;50.858;4.376;2022-09-27T05:02:41;5.57;;;4.10;;
39188;SDS011;24915;50.858;4.376;2022-09-27T05:05:07;6.63;;;4.15;;
39188;SDS011;24915;50.858;4.376;2022-09-27T05:07:34;7.45;;;4.68;;
39188;SDS011;24915;50.858;4.376;2022-09-27T05:10:01;4.38;;;3.80;;
39188;SDS011;24915;50.858;4.376;2022-09-27T05:12:27;9.40;;;4.72;;
39188;SDS011;24915;50.858;4.376;2022-09-27T05:14:52;6.68;;;4.03;;
39188;SDS011;24915;50.858;4.376;2022-09-27T05:17:18;6.50;;;3.30;;
39188;SDS011;24915;50.858;4.376;2022-09-27T05:19:45;5.72;;;2.95;;
39188;SDS011;24915;50.858;4.376;2022-09-27T05:22:11;4.93;;;3.00;;
39188;SDS011;24915;50.858;4.376;2022-09-27T05:24:36;5.20;;;3.20;;
39188;SDS011;24915;50.858;4.376;2022-09-27T05:27:03;7.07;;;3.20;;
39188;SDS011;24915;50.858;4.376;2022-09-27T05:29:32;5.35;;;3.85;;
39188;SDS011;24915;50.858;4.376;2022-09-27T05:31:59;3.30;;;3.00;;
39188;SDS011;24915;50.858;4.376;2022-09-27T05:34:25;5.50;;;3.40;;
39188;SDS011;24915;50.858;4.376;2022-09-27T05:36:51;4.57;;;3.28;;
39188;SDS011;24915;50.858;4.376;2022-09-27T05:39:17;9.15;;;3.65;;
39188;SDS011;24915;50.858;4.376;2022-09-27T05:41:44;6.38;;;3.60;;
39188;SDS011;24915;50.858;4.376;2022-09-27T05:44:10;10.13;;;3.95;;
39188;SDS011;24915;50.858;4.376;2022-09-27T05:46:37;5.18;;;3.67;;
39188;SDS011;24915;50.858;4.376;2022-09-27T05:49:03;11.55;;;3.70;;
39188;SDS011;24915;50.858;4.376;2022-09-27T05:51:30;5.40;;;3.42;;
39188;SDS011;24915;50.858;4.376;2022-09-27T05:53:56;4.45;;;3.63;;
39188;SDS011;24915;50.858;4.376;2022-09-27T05:56:23;11.07;;;4.28;;
39188;SDS011;24915;50.858;4.376;2022-09-27T05:58:49;5.82;;;3.33;;
39188;SDS011;24915;50.858;4.376;2022-09-27T06:01:15;8.48;;;3.47;;
39188;SDS011;24915;50.858;4.376;2022-09-27T06:03:41;6.13;;;3.08;;
39188;SDS011;24915;50.858;4.376;2022-09-27T06:06:07;5.38;;;2.75;;
39188;SDS011;24915;50.858;4.376;2022-09-27T06:08:35;3.90;;;2.75;;
39188;SDS011;24915;50.858;4.376;2022-09-27T06:11:03;6.50;;;2.60;;
39188;SDS011;24915;50.858;4.376;2022-09-27T06:13:30;7.10;;;2.90;;
39188;SDS011;24915;50.858;4.376;2022-09-27T06:16:05;6.57;;;2.60;;
39188;SDS011;24915;50.858;4.376;2022-09-27T06:18:33;5.03;;;3.13;;
39188;SDS011;24915;50.858;4.376;2022-09-27T06:21:00;5.65;;;2.78;;
39188;SDS011;24915;50.858;4.376;2022-09-27T06:23:27;7.90;;;2.70;;
39188;SDS011;24915;50.858;4.376;2022-09-27T06:25:53;5.80;;;2.85;;
39188;SDS011;24915;50.858;4.376;2022-09-27T06:28:19;7.78;;;2.92;;
39188;SDS011;24915;50.858;4.376;2022-09-27T06:30:46;9.95;;;3.40;;
39188;SDS011;24915;50.858;4.376;2022-09-27T06:33:14;5.88;;;2.78;;
39188;SDS011;24915;50.858;4.376;2022-09-27T06:35:41;5.22;;;2.92;;
39188;SDS011;24915;50.858;4.376;2022-09-27T06:38:13;4.47;;;2.92;;
39188;SDS011;24915;50.858;4.376;2022-09-27T06:40:43;9.70;;;3.63;;
39188;SDS011;24915;50.858;4.376;2022-09-27T06:43:10;6.38;;;3.00;;
39188;SDS011;24915;50.858;4.376;2022-09-27T06:45:41;7.22;;;3.08;;
39188;SDS011;24915;50.858;4.376;2022-09-27T06:48:07;6.20;;;2.75;;
39188;SDS011;24915;50.858;4.376;2022-09-27T06:50:35;5.70;;;3.00;;
39188;SDS011;24915;50.858;4.376;2022-09-27T06:53:04;3.28;;;2.97;;
39188;SDS011;24915;50.858;4.376;2022-09-27T06:55:30;4.82;;;2.97;;
39188;SDS011;24915;50.858;4.376;2022-09-27T06:57:57;6.47;;;3.03;;
39188;SDS011;24915;50.858;4.376;2022-09-27T07:00:42;7.90;;;3.05;;
39188;SDS011;24915;50.858;4.376;2022-09-27T07:03:09;6.43;;;3.28;;
39188;SDS011;24915;50.858;4.376;2022-09-27T07:06:05;5.28;;;3.70;;
39188;SDS011;24915;50.858;4.376;2022-09-27T07:08:31;7.00;;;3.70;;
39188;SDS011;24915;50.858;4.376;2022-09-27T07:11:01;7.43;;;3.35;;
39188;SDS011;24915;50.858;4.376;2022-09-27T07:13:29;10.40;;;3.75;;
39188;SDS011;24915;50.858;4.376;2022-09-27T07:16:01;6.53;;;3.78;;
39188;SDS011;24915;50.858;4.376;2022-09-27T07:18:27;7.05;;;3.65;;
39188;SDS011;24915;50.858;4.376;2022-09-27T07:20:53;11.45;;;3.70;;
39188;SDS011;24915;50.858;4.376;2022-09-27T07:23:19;7.93;;;3.67;;
39188;SDS011;24915;50.858;4.376;2022-09-27T07:25:45;7.20;;;4.53;;
39188;SDS011;24915;50.858;4.376;2022-09-27T07:28:15;7.60;;;3.78;;
39188;SDS011;24915;50.858;4.376;2022-09-27T07:30:42;13.18;;;4.93;;
39188;SDS011;24915;50.858;4.376;2022-09-27T07:33:09;9.18;;;4.22;;
39188;SDS011;24915;50.858;4.376;2022-09-27T07:35:37;6.22;;;3.83;;
39188;SDS011;24915;50.858;4.376;2022-09-27T07:38:08;7.50;;;4.18;;
39188;SDS011;24915;50.858;4.376;2022-09-27T07:40:38;6.25;;;3.47;;
39188;SDS011;24915;50.858;4.376;2022-09-27T07:43:04;5.38;;;3.78;;
39188;SDS011;24915;50.858;4.376;2022-09-27T07:45:30;8.23;;;3.70;;
39188;SDS011;24915;50.858;4.376;2022-09-27T07:47:56;4.63;;;3.90;;
39188;SDS011;24915;50.858;4.376;2022-09-27T07:50:22;9.10;;;3.58;;
39188;SDS011;24915;50.858;4.376;2022-09-27T07:52:48;8.48;;;3.60;;
39188;SDS011;24915;50.858;4.376;2022-09-27T07:55:16;5.97;;;3.25;;
39188;SDS011;24915;50.858;4.376;2022-09-27T07:57:42;7.93;;;3.58;;
39188;SDS011;24915;50.858;4.376;2022-09-27T08:00:15;8.10;;;3.67;;
39188;SDS011;24915;50.858;4.376;2022-09-27T08:02:43;5.10;;;3.80;;
39188;SDS011;24915;50.858;4.376;2022-09-27T08:05:10;6.60;;;3.67;;
39188;SDS011;24915;50.858;4.376;2022-09-27T08:07:37;7.80;;;3.30;;
39188;SDS011;24915;50.858;4.376;2022-09-27T08:10:04;5.35;;;2.92;;
39188;SDS011;24915;50.858;4.376;2022-09-27T08:12:31;4.55;;;2.65;;
39188;SDS011;24915;50.858;4.376;2022-09-27T08:14:57;5.95;;;3.00;;
39188;SDS011;24915;50.858;4.376;2022-09-27T08:17:26;5.63;;;2.90;;
39188;SDS011;24915;50.858;4.376;2022-09-27T08:19:52;12.00;;;2.72;;
39188;SDS011;24915;50.858;4.376;2022-09-27T08:22:19;8.38;;;3.22;;
39188;SDS011;24915;50.858;4.376;2022-09-27T08:24:46;3.90;;;3.20;;
39188;SDS011;24915;50.858;4.376;2022-09-27T08:27:13;6.75;;;2.92;;
39188;SDS011;24915;50.858;4.376;2022-09-27T08:29:39;7.97;;;3.95;;
39188;SDS011;24915;50.858;4.376;2022-09-27T08:32:06;5.55;;;2.92;;
39188;SDS011;24915;50.858;4.376;2022-09-27T08:34:32;3.67;;;2.63;;
39188;SDS011;24915;50.858;4.376;2022-09-27T08:36:58;7.10;;;3.00;;
39188;SDS011;24915;50.858;4.376;2022-09-27T08:39:24;5.95;;;3.38;;
39188;SDS011;24915;50.858;4.376;2022-09-27T08:47:46;3.97;;;2.78;;
39188;SDS011;24915;50.858;4.376;2022-09-27T08:50:22;4.93;;;2.53;;
39188;SDS011;24915;50.858;4.376;2022-09-27T08:53:03;2.50;;;2.20;;
39188;SDS011;24915;50.858;4.376;2022-09-27T08:55:52;5.82;;;2.22;;
39188;SDS011;24915;50.858;4.376;2022-09-27T09:00:59;3.17;;;1.80;;
39188;SDS011;24915;50.858;4.376;2022-09-27T09:03:31;5.20;;;2.40;;
39188;SDS011;24915;50.858;4.376;2022-09-27T09:29:06;7.80;;;2.05;;
39188;SDS011;24915;50.858;4.376;2022-09-27T09:32:06;12.85;;;2.15;;
39188;SDS011;24915;50.858;4.376;2022-09-27T09:34:37;5.82;;;2.13;;
39188;SDS011;24915;50.858;4.376;2022-09-27T09:37:16;6.25;;;2.10;;
39188;SDS011;24915;50.858;4.376;2022-09-27T09:40:04;5.38;;;1.92;;
39188;SDS011;24915;50.858;4.376;2022-09-27T09:42:53;6.30;;;2.22;;
39188;SDS011;24915;50.858;4.376;2022-09-27T09:46:06;4.82;;;1.92;;
39188;SDS011;24915;50.858;4.376;2022-09-27T09:48:43;5.22;;;1.70;;
39188;SDS011;24915;50.858;4.376;2022-09-27T09:51:14;3.97;;;2.10;;
39188;SDS011;24915;50.858;4.376;2022-09-27T09:57:17;7.88;;;1.92;;
39188;SDS011;24915;50.858;4.376;2022-09-27T09:59:28;5.72;;;2.00;;
39188;SDS011;24915;50.858;4.376;2022-09-27T10:04:42;3.58;;;2.20;;
39188;SDS011;24915;50.858;4.376;2022-09-27T10:07:07;12.15;;;2.55;;
39188;SDS011;24915;50.858;4.376;2022-09-27T10:09:33;8.05;;;2.63;;
39188;SDS011;24915;50.858;4.376;2022-09-27T10:12:00;8.77;;;2.20;;
39188;SDS011;24915;50.858;4.376;2022-09-27T10:14:26;3.83;;;1.95;;
39188;SDS011;24915;50.858;4.376;2022-09-27T10:17:00;11.45;;;2.30;;
39188;SDS011;24915;50.858;4.376;2022-09-27T10:19:30;9.18;;;3.25;;
39188;SDS011;24915;50.858;4.376;2022-09-27T10:22:02;5.72;;;2.67;;
39188;SDS011;24915;50.858;4.376;2022-09-27T10:27:22;11.32;;;3.60;;
39188;SDS011;24915;50.858;4.376;2022-09-27T10:29:56;11.10;;;3.13;;
39188;SDS011;24915;50.858;4.376;2022-09-27T10:32:33;8.30;;;2.28;;
39188;SDS011;24915;50.858;4.376;2022-09-27T10:37:46;10.35;;;2.60;;
39188;SDS011;24915;50.858;4.376;2022-09-27T10:40:28;11.60;;;3.35;;
39188;SDS011;24915;50.858;4.376;2022-09-27T10:42:54;6.93;;;2.95;;
39188;SDS011;24915;50.858;4.376;2022-09-27T10:47:46;12.15;;;3.53;;
39188;SDS011;24915;50.858;4.376;2022-09-27T10:50:20;16.52;;;3.40;;
39188;SDS011;24915;50.858;4.376;2022-09-27T10:55:40;18.08;;;4.55;;
39188;SDS011;24915;50.858;4.376;2022-09-27T10:58:14;11.27;;;3.65;;
39188;SDS011;24915;50.858;4.376;2022-09-27T11:00:44;29.98;;;4.28;;
39188;SDS011;24915;50.858;4.376;2022-09-27T11:03:21;7.53;;;2.90;;
39188;SDS011;24915;50.858;4.376;2022-09-27T11:05:49;9.90;;;2.85;;
39188;SDS011;24915;50.858;4.376;2022-09-27T11:10:58;12.75;;;3.10;;
39188;SDS011;24915;50.858;4.376;2022-09-27T11:13:30;9.85;;;2.67;;
39188;SDS011;24915;50.858;4.376;2022-09-27T11:21:28;5.45;;;2.25;;
39188;SDS011;24915;50.858;4.376;2022-09-27T11:24:15;4.57;;;2.10;;
39188;SDS011;24915;50.858;4.376;2022-09-27T11:29:24;3.60;;;2.25;;
39188;SDS011;24915;50.858;4.376;2022-09-27T11:32:12;9.40;;;2.30;;
39188;SDS011;24915;50.858;4.376;2022-09-27T11:38:19;5.05;;;1.42;;
39188;SDS011;24915;50.858;4.376;2022-09-27T11:41:09;4.47;;;1.77;;
39188;SDS011;24915;50.858;4.376;2022-09-27T11:46:35;3.70;;;1.50;;
39188;SDS011;24915;50.858;4.376;2022-09-27T11:49:13;2.80;;;1.40;;
39188;SDS011;24915;50.858;4.376;2022-09-27T12:08:37;6.45;;;1.60;;
39188;SDS011;24915;50.858;4.376;2022-09-27T12:14:00;6.63;;;1.95;;
39188;SDS011;24915;50.858;4.376;2022-09-27T12:16:34;7.10;;;1.67;;
39188;SDS011;24915;50.858;4.376;2022-09-27T12:19:03;5.45;;;1.75;;
39188;SDS011;24915;50.858;4.376;2022-09-27T12:21:34;9.25;;;2.42;;
39188;SDS011;24915;50.858;4.376;2022-09-27T12:24:00;10.40;;;2.08;;
39188;SDS011;24915;50.858;4.376;2022-09-27T12:26:33;9.50;;;2.10;;
39188;SDS011;24915;50.858;4.376;2022-09-27T12:29:05;6.90;;;2.00;;
39188;SDS011;24915;50.858;4.376;2022-09-27T12:31:58;7.63;;;2.05;;
39188;SDS011;24915;50.858;4.376;2022-09-27T12:34:38;6.22;;;2.30;;
39188;SDS011;24915;50.858;4.376;2022-09-27T12:37:24;5.03;;;1.70;;
39188;SDS011;24915;50.858;4.376;2022-09-27T12:39:53;7.25;;;2.05;;
39188;SDS011;24915;50.858;4.376;2022-09-27T12:42:24;5.00;;;2.00;;
39188;SDS011;24915;50.858;4.376;2022-09-27T12:44:53;9.68;;;2.33;;
39188;SDS011;24915;50.858;4.376;2022-09-27T12:53:12;5.78;;;1.38;;
39188;SDS011;24915;50.858;4.376;2022-09-27T13:04:35;2.78;;;1.17;;
39188;SDS011;24915;50.858;4.376;2022-09-27T13:12:51;3.83;;;1.60;;
39188;SDS011;24915;50.858;4.376;2022-09-27T13:15:26;4.57;;;1.05;;
39188;SDS011;24915;50.858;4.376;2022-09-27T13:17:56;7.68;;;1.40;;
39188;SDS011;24915;50.858;4.376;2022-09-27T13:22:55;5.90;;;1.63;;
39188;SDS011;24915;50.858;4.376;2022-09-27T13:46:48;5.57;;;2.50;;
39188;SDS011;24915;50.858;4.376;2022-09-27T13:49:32;11.02;;;3.10;;
39188;SDS011;24915;50.858;4.376;2022-09-27T13:52:03;6.35;;;2.97;;
39188;SDS011;24915;50.858;4.376;2022-09-27T13:54:56;10.35;;;2.42;;
39188;SDS011;24915;50.858;4.376;2022-09-27T14:05:38;7.40;;;2.15;;
39188;SDS011;24915;50.858;4.376;2022-09-27T14:08:32;10.07;;;2.22;;
39188;SDS011;24915;50.858;4.376;2022-09-27T14:10:56;9.60;;;1.77;;
39188;SDS011;24915;50.858;4.376;2022-09-27T14:13:23;11.48;;;2.38;;
39188;SDS011;24915;50.858;4.376;2022-09-27T14:15:51;8.43;;;2.55;;
39188;SDS011;24915;50.858;4.376;2022-09-27T14:18:18;9.50;;;2.53;;
39188;SDS011;24915;50.858;4.376;2022-09-27T14:20:47;8.38;;;1.58;;
39188;SDS011;24915;50.858;4.376;2022-09-27T14:23:20;5.95;;;1.65;;
39188;SDS011;24915;50.858;4.376;2022-09-27T14:25:48;7.07;;;1.92;;
39188;SDS011;24915;50.858;4.376;2022-09-27T14:28:26;7.10;;;2.15;;
39188;SDS011;24915;50.858;4.376;2022-09-27T14:31:12;7.32;;;2.08;;
39188;SDS011;24915;50.858;4.376;2022-09-27T14:33:38;9.88;;;2.45;;
39188;SDS011;24915;50.858;4.376;2022-09-27T14:36:07;9.15;;;2.42;;
39188;SDS011;24915;50.858;4.376;2022-09-27T14:39:15;10.77;;;2.80;;
39188;SDS011;24915;50.858;4.376;2022-09-27T14:44:16;12.43;;;3.60;;
39188;SDS011;24915;50.858;4.376;2022-09-27T14:46:43;7.88;;;2.55;;
39188;SDS011;24915;50.858;4.376;2022-09-27T14:49:19;16.92;;;3.67;;
39188;SDS011;24915;50.858;4.376;2022-09-27T14:51:53;12.20;;;2.97;;
39188;SDS011;24915;50.858;4.376;2022-09-27T14:54:24;8.45;;;2.20;;
39188;SDS011;24915;50.858;4.376;2022-09-27T14:56:54;10.07;;;2.20;;
39188;SDS011;24915;50.858;4.376;2022-09-27T15:01:51;7.25;;;2.45;;
39188;SDS011;24915;50.858;4.376;2022-09-27T15:04:17;8.20;;;2.13;;
39188;SDS011;24915;50.858;4.376;2022-09-27T15:06:45;9.63;;;2.30;;
39188;SDS011;24915;50.858;4.376;2022-09-27T15:09:12;13.30;;;2.40;;
39188;SDS011;24915;50.858;4.376;2022-09-27T15:11:40;6.07;;;2.60;;
39188;SDS011;24915;50.858;4.376;2022-09-27T15:14:10;8.30;;;2.20;;
39188;SDS011;24915;50.858;4.376;2022-09-27T15:16:39;6.68;;;2.65;;
39188;SDS011;24915;50.858;4.376;2022-09-27T15:19:16;8.70;;;3.33;;
39188;SDS011;24915;50.858;4.376;2022-09-27T15:21:53;9.23;;;4.68;;
39188;SDS011;24915;50.858;4.376;2022-09-27T15:27:13;9.13;;;2.53;;
39188;SDS011;24915;50.858;4.376;2022-09-27T15:29:48;6.22;;;2.13;;
39188;SDS011;24915;50.858;4.376;2022-09-27T15:32:20;6.50;;;2.50;;
39188;SDS011;24915;50.858;4.376;2022-09-27T15:34:48;7.68;;;2.03;;
39188;SDS011;24915;50.858;4.376;2022-09-27T15:45:32;4.53;;;1.98;;
39188;SDS011;24915;50.858;4.376;2022-09-27T15:48:16;9.73;;;1.77;;
39188;SDS011;24915;50.858;4.376;2022-09-27T15:50:44;5.75;;;1.88;;
39188;SDS011;24915;50.858;4.376;2022-09-27T15:53:11;7.53;;;2.13;;
39188;SDS011;24915;50.858;4.376;2022-09-27T15:55:40;6.57;;;1.65;;
39188;SDS011;24915;50.858;4.376;2022-09-27T15:58:15;3.08;;;1.67;;
39188;SDS011;24915;50.858;4.376;2022-09-27T16:00:54;4.80;;;2.10;;
39188;SDS011;24915;50.858;4.376;2022-09-27T16:03:22;3.95;;;1.85;;
39188;SDS011;24915;50.858;4.376;2022-09-27T16:05:48;5.95;;;2.30;;
39188;SDS011;24915;50.858;4.376;2022-09-27T16:08:14;8.13;;;3.28;;
39188;SDS011;24915;50.858;4.376;2022-09-27T16:10:47;6.03;;;1.90;;
39188;SDS011;24915;50.858;4.376;2022-09-27T16:13:15;6.35;;;2.13;;
39188;SDS011;24915;50.858;4.376;2022-09-27T16:15:41;7.30;;;2.17;;
39188;SDS011;24915;50.858;4.376;2022-09-27T16:18:08;6.95;;;3.88;;
39188;SDS011;24915;50.858;4.376;2022-09-27T16:20:34;6.50;;;2.10;;
39188;SDS011;24915;50.858;4.376;2022-09-27T16:23:00;3.92;;;1.92;;
39188;SDS011;24915;50.858;4.376;2022-09-27T16:25:26;6.85;;;1.85;;
39188;SDS011;24915;50.858;4.376;2022-09-27T16:27:52;6.40;;;3.03;;
39188;SDS011;24915;50.858;4.376;2022-09-27T16:30:21;5.47;;;2.40;;
39188;SDS011;24915;50.858;4.376;2022-09-27T16:32:47;6.75;;;2.20;;
39188;SDS011;24915;50.858;4.376;2022-09-27T16:35:14;8.30;;;2.80;;
39188;SDS011;24915;50.858;4.376;2022-09-27T16:37:41;7.70;;;2.30;;
39188;SDS011;24915;50.858;4.376;2022-09-27T16:40:07;9.02;;;1.85;;
39188;SDS011;24915;50.858;4.376;2022-09-27T16:42:35;6.13;;;2.33;;
39188;SDS011;24915;50.858;4.376;2022-09-27T16:45:01;9.32;;;2.63;;
39188;SDS011;24915;50.858;4.376;2022-09-27T16:47:28;9.88;;;2.10;;
39188;SDS011;24915;50.858;4.376;2022-09-27T16:49:55;6.28;;;1.88;;
39188;SDS011;24915;50.858;4.376;2022-09-27T16:52:39;6.13;;;2.30;;
39188;SDS011;24915;50.858;4.376;2022-09-27T16:55:12;5.70;;;1.88;;
39188;SDS011;24915;50.858;4.376;2022-09-27T16:57:41;9.18;;;2.30;;
39188;SDS011;24915;50.858;4.376;2022-09-27T17:00:07;8.35;;;2.80;;
39188;SDS011;24915;50.858;4.376;2022-09-27T17:02:33;8.48;;;2.33;;
39188;SDS011;24915;50.858;4.376;2022-09-27T17:05:00;19.45;;;3.60;;
39188;SDS011;24915;50.858;4.376;2022-09-27T17:07:26;10.60;;;3.22;;
39188;SDS011;24915;50.858;4.376;2022-09-27T17:09:51;8.85;;;3.03;;
39188;SDS011;24915;50.858;4.376;2022-09-27T17:12:17;8.02;;;2.90;;
39188;SDS011;24915;50.858;4.376;2022-09-27T17:14:43;6.38;;;2.60;;
39188;SDS011;24915;50.858;4.376;2022-09-27T17:17:09;12.43;;;3.20;;
39188;SDS011;24915;50.858;4.376;2022-09-27T17:19:34;7.15;;;3.15;;
39188;SDS011;24915;50.858;4.376;2022-09-27T17:22:02;10.75;;;2.75;;
39188;SDS011;24915;50.858;4.376;2022-09-27T17:24:27;6.30;;;2.55;;
39188;SDS011;24915;50.858;4.376;2022-09-27T17:26:53;10.60;;;3.00;;
39188;SDS011;24915;50.858;4.376;2022-09-27T17:29:19;10.48;;;2.50;;
39188;SDS011;24915;50.858;4.376;2022-09-27T17:31:45;10.13;;;2.33;;
39188;SDS011;24915;50.858;4.376;2022-09-27T17:34:11;15.43;;;4.00;;
39188;SDS011;24915;50.858;4.376;2022-09-27T17:36:41;11.43;;;3.63;;
39188;SDS011;24915;50.858;4.376;2022-09-27T17:39:12;9.35;;;2.80;;
39188;SDS011;24915;50.858;4.376;2022-09-27T17:41:40;13.15;;;2.85;;
39188;SDS011;24915;50.858;4.376;2022-09-27T17:44:06;8.90;;;3.42;;
39188;SDS011;24915;50.858;4.376;2022-09-27T17:46:35;9.32;;;3.58;;
39188;SDS011;24915;50.858;4.376;2022-09-27T17:49:01;11.98;;;4.22;;
39188;SDS011;24915;50.858;4.376;2022-09-27T17:51:46;15.88;;;4.35;;
39188;SDS011;24915;50.858;4.376;2022-09-27T17:54:13;13.15;;;4.53;;
39188;SDS011;24915;50.858;4.376;2022-09-27T17:56:41;10.15;;;4.13;;
39188;SDS011;24915;50.858;4.376;2022-09-27T17:59:08;15.60;;;5.00;;
39188;SDS011;24915;50.858;4.376;2022-09-27T18:01:35;11.48;;;4.85;;
39188;SDS011;24915;50.858;4.376;2022-09-27T18:04:03;9.57;;;4.50;;
39188;SDS011;24915;50.858;4.376;2022-09-27T18:06:30;8.48;;;3.38;;
39188;SDS011;24915;50.858;4.376;2022-09-27T18:08:56;7.18;;;3.30;;
39188;SDS011;24915;50.858;4.376;2022-09-27T18:11:25;8.65;;;3.58;;
39188;SDS011;24915;50.858;4.376;2022-09-27T18:13:54;11.82;;;4.10;;
39188;SDS011;24915;50.858;4.376;2022-09-27T18:16:24;9.35;;;4.00;;
39188;SDS011;24915;50.858;4.376;2022-09-27T18:18:53;9.98;;;4.43;;
39188;SDS011;24915;50.858;4.376;2022-09-27T18:21:20;7.65;;;3.03;;
39188;SDS011;24915;50.858;4.376;2022-09-27T18:23:48;4.07;;;1.70;;
39188;SDS011;24915;50.858;4.376;2022-09-27T18:26:18;3.90;;;2.10;;
39188;SDS011;24915;50.858;4.376;2022-09-27T18:28:48;5.55;;;2.00;;
39188;SDS011;24915;50.858;4.376;2022-09-27T18:31:16;4.03;;;1.65;;
39188;SDS011;24915;50.858;4.376;2022-09-27T18:33:43;4.25;;;1.98;;
39188;SDS011;24915;50.858;4.376;2022-09-27T18:36:13;3.55;;;1.98;;
39188;SDS011;24915;50.858;4.376;2022-09-27T18:38:41;4.53;;;1.67;;
39188;SDS011;24915;50.858;4.376;2022-09-27T18:41:08;3.95;;;2.20;;
39188;SDS011;24915;50.858;4.376;2022-09-27T18:43:39;4.45;;;2.58;;